Time;durP1;ratioP1;P1;durP2;ratioP2;P2;SDS_P1;SDS_P2;PMS_P1;PMS_P2;Temp;Humidity;BMP_temperature;BMP_pressure;BME280_temperature;BME280_humidity;BME280_pressure;Samples;Min_cycle;Max_cycle;Signal;HPM_P1;HPM_P2
2021/01/14 00:00:28;;;;;;;38.15;17.40;;;1.80;63.10;;;;;;5115642;28;20034;-72
2021/01/14 00:02:53;;;;;;;32.00;15.57;;;1.90;63.00;;;;;;5115279;28;20032;-72
2021/01/14 00:05:20;;;;;;;36.60;17.45;;;1.90;62.80;;;;;;5114701;28;20115;-72
2021/01/14 00:07:46;;;;;;;33.83;15.75;;;1.90;62.80;;;;;;5114828;28;20464;-73
2021/01/14 00:10:13;;;;;;;35.75;16.80;;;1.90;62.70;;;;;;5115334;28;20016;-73
2021/01/14 00:12:42;;;;;;;34.90;17.50;;;1.90;62.70;;;;;;5114021;28;20020;-73
2021/01/14 00:15:10;;;;;;;38.22;17.15;;;1.90;62.80;;;;;;5114693;28;20066;-72
2021/01/14 00:17:35;;;;;;;31.42;15.27;;;1.90;62.80;;;;;;5115251;28;20030;-72
2021/01/14 00:20:03;;;;;;;43.33;19.45;;;1.90;63.40;;;;;;5114893;28;20023;-72
2021/01/14 00:22:29;;;;;;;37.38;15.98;;;1.90;62.70;;;;;;5114585;28;20573;-73
2021/01/14 00:24:54;;;;;;;29.13;15.27;;;1.90;62.70;;;;;;5114486;28;20039;-72
2021/01/14 00:27:20;;;;;;;31.48;15.07;;;1.90;62.60;;;;;;5115059;28;20136;-72
2021/01/14 00:29:45;;;;;;;28.65;14.45;;;1.90;62.60;;;;;;5115578;28;20035;-73
2021/01/14 00:32:11;;;;;;;34.50;15.77;;;1.80;62.60;;;;;;5114199;28;20019;-71
2021/01/14 00:34:38;;;;;;;34.33;15.82;;;1.80;62.70;;;;;;5114589;28;20380;-72
2021/01/14 00:39:53;;;;;;;30.20;15.20;;;1.80;63.10;;;;;;5114798;28;20094;-73
2021/01/14 00:42:19;;;;;;;30.52;15.77;;;1.80;62.90;;;;;;5114669;28;20027;-72
2021/01/14 00:44:44;;;;;;;32.45;15.50;;;1.80;63.10;;;;;;5112457;28;20394;-73
2021/01/14 00:47:10;;;;;;;38.25;19.45;;;1.80;62.80;;;;;;5114453;28;20055;-73
2021/01/14 00:49:36;;;;;;;49.13;20.58;;;1.80;63.10;;;;;;5114447;28;20027;-73
2021/01/14 00:52:02;;;;;;;37.70;18.60;;;1.80;63.00;;;;;;5114614;28;20023;-72
2021/01/14 00:54:28;;;;;;;39.42;19.27;;;1.80;63.20;;;;;;5114066;28;20077;-72
2021/01/14 00:56:53;;;;;;;38.38;18.83;;;1.90;63.30;;;;;;5114278;28;20406;-72
2021/01/14 00:59:19;;;;;;;43.95;20.23;;;1.90;63.20;;;;;;5114286;28;20074;-72
2021/01/14 01:01:45;;;;;;;40.92;19.30;;;1.90;63.10;;;;;;5112986;28;20030;-72
2021/01/14 01:04:11;;;;;;;53.80;22.70;;;1.90;63.10;;;;;;5113829;28;20040;-72
2021/01/14 01:06:41;;;;;;;43.15;18.85;;;1.90;63.10;;;;;;5112808;28;20024;-72
2021/01/14 01:09:09;;;;;;;38.97;18.33;;;1.90;63.00;;;;;;5112810;28;20044;-72
2021/01/14 01:11:35;;;;;;;42.92;19.33;;;1.90;62.80;;;;;;5114067;28;20032;-72
2021/01/14 01:14:02;;;;;;;37.92;17.67;;;1.80;63.10;;;;;;5112766;28;20028;-72
2021/01/14 01:16:28;;;;;;;40.65;18.00;;;1.80;63.30;;;;;;5113318;28;20055;-72
2021/01/14 01:18:53;;;;;;;42.28;19.45;;;1.80;63.30;;;;;;5113726;28;20455;-72
2021/01/14 01:21:19;;;;;;;40.38;19.13;;;1.80;63.30;;;;;;5113267;28;20031;-72
2021/01/14 01:23:45;;;;;;;37.50;18.45;;;1.80;63.30;;;;;;5112603;28;20059;-72
2021/01/14 01:26:15;;;;;;;36.63;17.52;;;1.80;63.20;;;;;;5113141;28;20027;-72
2021/01/14 01:28:42;;;;;;;35.95;17.00;;;1.90;63.40;;;;;;5113936;28;20027;-72
2021/01/14 01:31:09;;;;;;;41.97;19.83;;;1.80;63.10;;;;;;5113801;28;20028;-73
2021/01/14 01:33:35;;;;;;;47.78;20.85;;;1.80;63.00;;;;;;5112835;28;20031;-72
2021/01/14 01:36:01;;;;;;;49.83;21.92;;;1.70;63.10;;;;;;5112445;28;20028;-72
2021/01/14 01:38:26;;;;;;;54.25;23.45;;;1.70;63.40;;;;;;5114079;28;20149;-71
2021/01/14 01:41:01;;;;;;;45.60;19.80;;;1.70;63.40;;;;;;5112449;28;20055;-72
2021/01/14 01:43:27;;;;;;;49.33;20.60;;;1.70;63.60;;;;;;5113410;28;20024;-72
2021/01/14 01:45:53;;;;;;;49.40;22.25;;;1.70;63.60;;;;;;5113738;28;20030;-72
2021/01/14 01:48:20;;;;;;;49.95;21.95;;;1.60;63.50;;;;;;5112402;28;20031;-72
2021/01/14 01:50:49;;;;;;;51.72;22.05;;;1.60;63.60;;;;;;5112966;28;20062;-72
2021/01/14 01:53:15;;;;;;;55.65;24.00;;;1.60;63.70;;;;;;5113706;28;20024;-72
2021/01/14 01:55:45;;;;;;;48.75;22.17;;;1.50;63.80;;;;;;5113357;28;20463;-73
2021/01/14 01:58:11;;;;;;;51.50;21.70;;;1.50;64.10;;;;;;5113637;28;20024;-72
2021/01/14 02:00:37;;;;;;;55.20;24.05;;;1.50;64.30;;;;;;5113602;28;20051;-73
2021/01/14 02:03:03;;;;;;;54.00;21.60;;;1.50;64.20;;;;;;5113315;28;20027;-72
2021/01/14 02:05:29;;;;;;;48.25;20.98;;;1.60;64.30;;;;;;5113480;28;20035;-72
2021/01/14 02:08:15;;;;;;;51.95;21.95;;;1.60;64.30;;;;;;5111573;28;20119;-73
2021/01/14 02:10:55;;;;;;;56.70;22.20;;;1.60;64.30;;;;;;5113489;28;20024;-72
2021/01/14 02:13:31;;;;;;;51.15;22.75;;;1.60;64.40;;;;;;5113547;28;20024;-73
2021/01/14 02:16:02;;;;;;;52.55;23.52;;;1.60;64.50;;;;;;5113494;28;20375;-72
2021/01/14 02:18:29;;;;;;;50.78;22.48;;;1.70;64.60;;;;;;5113209;28;20024;-71
2021/01/14 02:20:59;;;;;;;49.22;22.52;;;1.70;64.50;;;;;;5113451;28;20114;-72
2021/01/14 02:23:45;;;;;;;50.95;20.73;;;1.70;64.50;;;;;;5111427;28;20035;-72
2021/01/14 02:26:16;;;;;;;50.58;23.05;;;1.70;65.10;;;;;;5112969;28;20490;-72
2021/01/14 02:28:45;;;;;;;49.30;22.15;;;1.70;64.50;;;;;;5112096;28;20027;-72
2021/01/14 02:31:12;;;;;;;52.50;22.40;;;1.80;64.40;;;;;;5113237;28;20361;-72
2021/01/14 02:33:38;;;;;;;59.83;25.95;;;1.80;64.50;;;;;;5112602;28;20367;-72
2021/01/14 02:36:04;;;;;;;61.63;28.05;;;1.80;65.10;;;;;;5115183;28;20027;-72
2021/01/14 02:38:30;;;;;;;54.75;24.83;;;1.90;64.50;;;;;;5116253;28;20474;-72
2021/01/14 02:40:56;;;;;;;63.75;27.20;;;1.90;64.40;;;;;;5115631;28;20062;-71
2021/01/14 02:43:22;;;;;;;61.75;27.13;;;1.90;64.30;;;;;;5116529;28;20024;-72
2021/01/14 02:45:48;;;;;;;58.13;24.10;;;1.90;64.30;;;;;;5117681;28;20447;-72
2021/01/14 02:48:19;;;;;;;56.25;25.30;;;1.90;64.40;;;;;;5115951;28;20063;-72
2021/01/14 02:50:47;;;;;;;59.05;26.00;;;1.90;64.50;;;;;;5116684;28;20019;-72
2021/01/14 02:53:15;;;;;;;59.40;24.80;;;1.90;64.40;;;;;;5116063;28;20445;-73
2021/01/14 02:55:41;;;;;;;57.65;23.98;;;1.90;64.40;;;;;;5116661;28;20055;-72
2021/01/14 02:58:07;;;;;;;52.10;25.17;;;1.90;64.40;;;;;;5116495;28;20102;-73
2021/01/14 03:00:33;;;;;;;63.75;24.92;;;2.00;64.40;;;;;;5115763;28;20032;-72
2021/01/14 03:02:59;;;;;;;61.60;25.05;;;1.90;64.20;;;;;;5115216;28;20481;-72
2021/01/14 03:05:25;;;;;;;64.57;26.42;;;1.90;64.40;;;;;;5116332;28;20031;-72
2021/01/14 03:07:51;;;;;;;56.17;25.13;;;1.90;64.60;;;;;;5115613;28;20024;-73
2021/01/14 03:10:16;;;;;;;62.60;25.25;;;2.00;64.60;;;;;;5116026;28;20024;-72
2021/01/14 03:12:42;;;;;;;52.70;23.30;;;2.00;64.40;;;;;;5116148;28;20544;-72
2021/01/14 03:15:08;;;;;;;65.63;26.90;;;2.00;64.50;;;;;;5114724;28;20035;-74
2021/01/14 03:17:37;;;;;;;61.30;28.17;;;2.00;64.40;;;;;;5116217;28;20030;-72
2021/01/14 03:20:07;;;;;;;71.50;29.98;;;2.10;64.50;;;;;;5111532;28;20031;-73
2021/01/14 03:22:40;;;;;;;68.15;28.05;;;2.00;64.30;;;;;;5116102;28;20084;-72
2021/01/14 03:25:11;;;;;;;65.32;27.67;;;2.10;64.30;;;;;;5115949;28;20043;-72
2021/01/14 03:27:41;;;;;;;74.78;30.10;;;2.00;64.20;;;;;;5116202;28;20478;-72
2021/01/14 03:30:09;;;;;;;66.82;27.48;;;2.00;64.30;;;;;;5113668;28;20024;-72
2021/01/14 03:32:35;;;;;;;62.28;26.60;;;2.00;64.30;;;;;;5115258;28;20023;-72
2021/01/14 03:35:00;;;;;;;65.72;27.08;;;1.90;64.10;;;;;;5115738;28;20032;-72
2021/01/14 03:37:26;;;;;;;72.47;30.88;;;1.90;64.20;;;;;;5116004;28;20038;-73
2021/01/14 03:39:52;;;;;;;57.72;26.42;;;1.80;64.20;;;;;;5116168;28;20051;-72
2021/01/14 03:42:22;;;;;;;60.97;27.13;;;1.80;64.40;;;;;;5115701;28;20027;-72
2021/01/14 03:44:48;;;;;;;59.40;25.58;;;1.80;64.50;;;;;;5116124;28;20416;-73
2021/01/14 03:47:14;;;;;;;60.78;27.98;;;1.70;64.70;;;;;;5114699;28;20099;-72
2021/01/14 03:49:41;;;;;;;58.55;27.00;;;1.80;64.90;;;;;;5114451;28;20028;-71
2021/01/14 03:52:11;;;;;;;65.40;27.55;;;1.70;64.80;;;;;;5115265;28;20031;-73
2021/01/14 03:54:37;;;;;;;58.67;26.20;;;1.70;64.80;;;;;;5114970;28;20505;-71
2021/01/14 03:57:04;;;;;;;65.10;26.58;;;1.70;64.90;;;;;;5115273;28;20035;-72
2021/01/14 03:59:30;;;;;;;61.22;27.98;;;1.80;65.00;;;;;;5115363;28;20030;-73
2021/01/14 04:02:08;;;;;;;60.92;26.20;;;1.80;65.70;;;;;;5115542;28;20106;-72
2021/01/14 04:04:36;;;;;;;67.95;27.33;;;1.90;65.10;;;;;;5115232;28;20035;-73
2021/01/14 04:07:05;;;;;;;61.47;28.15;;;1.90;64.90;;;;;;5115486;28;20022;-72
2021/01/14 04:09:30;;;;;;;67.40;28.33;;;1.90;65.00;;;;;;5115437;28;20015;-72
2021/01/14 04:11:56;;;;;;;76.38;28.70;;;1.90;65.00;;;;;;5115232;28;20425;-72
2021/01/14 04:14:22;;;;;;;77.78;29.98;;;1.90;65.00;;;;;;5114726;28;20155;-72
2021/01/14 04:16:51;;;;;;;67.97;26.85;;;1.90;65.30;;;;;;5114449;28;20444;-72
2021/01/14 04:19:17;;;;;;;81.35;30.42;;;1.90;65.30;;;;;;5114999;28;20030;-72
2021/01/14 04:21:43;;;;;;;73.00;29.90;;;2.00;65.40;;;;;;5115037;28;20110;-72
2021/01/14 04:24:10;;;;;;;81.00;34.13;;;2.00;65.40;;;;;;5114692;28;20031;-72
2021/01/14 04:26:36;;;;;;;67.93;29.45;;;2.00;65.40;;;;;;5114913;28;20032;-73
2021/01/14 04:29:02;;;;;;;68.07;30.15;;;2.00;65.30;;;;;;5113549;28;20026;-73
2021/01/14 04:31:28;;;;;;;74.25;30.45;;;2.10;65.50;;;;;;5115294;28;20023;-73
2021/01/14 04:33:54;;;;;;;73.10;30.33;;;2.10;65.60;;;;;;5115134;28;20040;-73
2021/01/14 04:36:20;;;;;;;70.47;30.40;;;2.10;65.50;;;;;;5114274;28;20020;-72
2021/01/14 04:38:45;;;;;;;73.32;30.95;;;2.20;65.40;;;;;;5114416;28;20467;-73
2021/01/14 04:41:13;;;;;;;69.63;28.17;;;2.10;65.30;;;;;;5114578;28;20019;-73
2021/01/14 04:43:39;;;;;;;66.68;28.60;;;2.20;65.40;;;;;;5114350;28;20454;-74
2021/01/14 04:46:07;;;;;;;63.10;26.35;;;2.10;65.20;;;;;;5114751;28;20099;-73
2021/01/14 04:48:35;;;;;;;67.15;28.98;;;2.20;65.30;;;;;;5114501;28;20085;-73
2021/01/14 04:51:12;;;;;;;66.03;26.33;;;2.10;65.20;;;;;;5114574;28;20367;-72
2021/01/14 04:53:40;;;;;;;62.17;27.35;;;2.10;65.30;;;;;;5114345;28;20019;-73
2021/01/14 04:56:08;;;;;;;63.85;27.75;;;2.10;65.50;;;;;;5113078;28;20077;-72
2021/01/14 04:58:41;;;;;;;65.57;27.92;;;2.10;65.70;;;;;;5113763;28;20027;-73
2021/01/14 05:01:17;;;;;;;70.68;30.48;;;2.10;65.80;;;;;;5112806;28;20077;-73
2021/01/14 05:03:48;;;;;;;66.55;29.35;;;2.00;65.70;;;;;;5112705;28;20460;-73
2021/01/14 05:06:24;;;;;;;71.18;29.80;;;2.00;65.70;;;;;;5113603;28;20034;-73
2021/01/14 05:08:55;;;;;;;67.15;29.15;;;2.00;66.40;;;;;;5114237;28;20363;-73
2021/01/14 05:11:25;;;;;;;73.05;31.45;;;2.00;65.90;;;;;;5113070;28;20046;-72
2021/01/14 05:13:50;;;;;;;69.05;29.25;;;2.00;66.00;;;;;;5113845;28;20024;-73
2021/01/14 05:16:16;;;;;;;83.05;34.20;;;2.00;65.90;;;;;;5113919;28;20095;-73
2021/01/14 05:18:42;;;;;;;79.80;33.45;;;2.00;65.90;;;;;;5112587;28;20436;-72
2021/01/14 05:21:08;;;;;;;73.72;31.17;;;2.00;66.20;;;;;;5114369;28;20044;-73
2021/01/14 05:23:34;;;;;;;74.53;31.20;;;2.00;66.30;;;;;;5113324;28;20360;-73
2021/01/14 05:26:01;;;;;;;72.93;30.23;;;2.10;66.30;;;;;;5114077;28;20024;-71
2021/01/14 05:28:29;;;;;;;64.13;27.30;;;2.10;66.40;;;;;;5113535;28;20031;-72
2021/01/14 05:31:16;;;;;;;65.85;30.77;;;2.10;66.40;;;;;;5113553;28;20545;-74
2021/01/14 05:33:42;;;;;;;62.60;26.30;;;2.20;66.40;;;;;;5112551;28;20048;-72
2021/01/14 05:36:08;;;;;;;64.70;27.00;;;2.20;66.10;;;;;;5113721;28;20032;-73
2021/01/14 05:38:34;;;;;;;68.50;28.88;;;2.30;66.10;;;;;;5113602;28;20034;-73
2021/01/14 05:41:18;;;;;;;65.15;28.25;;;2.20;66.10;;;;;;5113651;28;20028;-73
2021/01/14 05:44:00;;;;;;;66.10;29.55;;;2.30;66.10;;;;;;5113585;28;20034;-73
2021/01/14 05:46:31;;;;;;;68.28;28.67;;;2.30;66.00;;;;;;5113542;28;20145;-72
2021/01/14 05:48:59;;;;;;;60.92;26.77;;;2.30;66.00;;;;;;5113308;28;20104;-73
2021/01/14 05:51:27;;;;;;;71.70;29.95;;;2.30;66.00;;;;;;5112289;28;20028;-72
2021/01/14 05:54:07;;;;;;;75.75;29.73;;;2.30;66.00;;;;;;5113536;28;20035;-73
2021/01/14 05:56:46;;;;;;;62.60;24.73;;;2.20;66.20;;;;;;5113399;28;20078;-72
2021/01/14 05:59:17;;;;;;;68.72;27.02;;;2.20;66.20;;;;;;5112801;28;20479;-73
2021/01/14 06:02:25;;;;;;;71.57;28.02;;;2.20;66.60;;;;;;5113258;28;20015;-73
2021/01/14 06:04:51;;;;;;;63.53;27.73;;;2.20;67.00;;;;;;5093146;28;20052;-74
2021/01/14 06:07:17;;;;;;;68.05;27.73;;;2.20;66.90;;;;;;5111570;28;20031;-73
2021/01/14 06:09:45;;;;;;;71.70;29.98;;;2.20;67.20;;;;;;5114904;28;20257;-74
2021/01/14 06:12:12;;;;;;;79.03;29.45;;;2.20;67.30;;;;;;5116207;28;20027;-72
2021/01/14 06:14:38;;;;;;;73.07;29.45;;;2.30;67.40;;;;;;5118123;28;20055;-73
2021/01/14 06:17:11;;;;;;;74.68;28.25;;;2.20;67.40;;;;;;5116991;28;20027;-73
2021/01/14 06:19:38;;;;;;;74.50;30.25;;;2.30;67.60;;;;;;5117742;28;20027;-71
2021/01/14 06:22:05;;;;;;;76.32;29.67;;;2.30;67.60;;;;;;5117206;28;20093;-74
2021/01/14 06:24:36;;;;;;;81.47;32.92;;;2.20;67.60;;;;;;5117136;28;20039;-72
2021/01/14 06:27:04;;;;;;;78.53;29.75;;;2.20;67.80;;;;;;5117103;28;20061;-73
2021/01/14 06:29:39;;;;;;;84.85;29.95;;;2.20;68.20;;;;;;5116814;28;20024;-75
2021/01/14 06:32:08;;;;;;;85.13;33.45;;;2.20;68.10;;;;;;5115893;28;20034;-74
2021/01/14 06:34:35;;;;;;;74.80;30.00;;;2.20;68.20;;;;;;5116901;28;20039;-73
2021/01/14 06:37:08;;;;;;;80.82;31.77;;;2.30;68.40;;;;;;5116691;28;20027;-73
2021/01/14 06:39:45;;;;;;;83.72;30.42;;;2.30;68.60;;;;;;5116794;28;20086;-74
2021/01/14 06:42:20;;;;;;;84.25;34.85;;;2.30;68.60;;;;;;5110667;28;20215;-73
2021/01/14 06:45:01;;;;;;;81.03;31.00;;;2.30;68.50;;;;;;5116191;28;20044;-72
2021/01/14 06:47:42;;;;;;;81.32;33.33;;;2.30;68.70;;;;;;5116316;28;20500;-73
2021/01/14 06:50:20;;;;;;;81.38;32.33;;;2.40;68.70;;;;;;5116217;28;20028;-75
2021/01/14 06:53:02;;;;;;;81.63;34.53;;;2.40;68.80;;;;;;5115343;28;20363;-73
2021/01/14 06:55:30;;;;;;;88.43;35.03;;;2.50;69.10;;;;;;5116825;28;20023;-74
2021/01/14 06:58:12;;;;;;;81.45;32.20;;;2.50;69.00;;;;;;5117031;28;20061;-73
2021/01/14 07:00:40;;;;;;;83.93;32.40;;;2.50;68.90;;;;;;5116146;28;20020;-73
2021/01/14 07:03:20;;;;;;;83.32;32.88;;;2.50;68.90;;;;;;5114984;28;20088;-73
2021/01/14 07:05:52;;;;;;;82.32;32.58;;;2.50;68.90;;;;;;5115420;28;20371;-73
2021/01/14 07:08:56;;;;;;;86.82;32.05;;;2.60;68.90;;;;;;5116060;28;20027;-74
2021/01/14 07:11:22;;;;;;;78.35;33.50;;;2.60;69.00;;;;;;5116637;28;20041;-73
2021/01/14 07:13:50;;;;;;;90.90;35.05;;;2.60;68.90;;;;;;5115232;28;20147;-73
2021/01/14 07:16:20;;;;;;;81.82;33.63;;;2.60;69.10;;;;;;5114915;28;20024;-74
2021/01/14 07:18:47;;;;;;;87.85;34.22;;;2.60;69.00;;;;;;5115875;28;20113;-73
2021/01/14 07:21:15;;;;;;;94.07;35.38;;;2.60;69.20;;;;;;5116161;28;20153;-74
2021/01/14 07:24:19;;;;;;;90.35;37.28;;;2.60;69.40;;;;;;5116294;28;20057;-74
2021/01/14 07:26:57;;;;;;;93.75;37.35;;;2.70;69.50;;;;;;5114544;28;20387;-74
2021/01/14 07:29:24;;;;;;;94.95;38.33;;;2.80;69.50;;;;;;5116272;28;20028;-75
2021/01/14 07:32:00;;;;;;;88.88;35.85;;;2.80;69.50;;;;;;5115355;28;20368;-73
2021/01/14 07:34:33;;;;;;;102.30;41.20;;;2.80;69.30;;;;;;5113913;28;20046;-73
2021/01/14 07:36:59;;;;;;;115.03;45.25;;;2.90;69.60;;;;;;5115778;28;20032;-72
2021/01/14 07:39:53;;;;;;;141.80;57.97;;;3.00;69.70;;;;;;5115876;28;20557;-72
2021/01/14 07:42:32;;;;;;;90.85;39.08;;;3.00;69.60;;;;;;5115641;28;20055;-73
2021/01/14 07:45:06;;;;;;;92.60;38.45;;;3.10;69.50;;;;;;5115771;28;20035;-74
2021/01/14 07:47:35;;;;;;;98.40;40.17;;;3.10;69.20;;;;;;5114240;28;20037;-74
2021/01/14 07:50:21;;;;;;;71.15;33.08;;;3.20;69.30;;;;;;5114767;28;20501;-73
2021/01/14 07:52:49;;;;;;;79.32;36.28;;;3.20;69.20;;;;;;5114157;28;20028;-74
2021/01/14 07:55:44;;;;;;;89.55;37.60;;;3.20;69.20;;;;;;5115429;28;20034;-72
2021/01/14 07:58:21;;;;;;;88.78;35.78;;;3.30;69.20;;;;;;5105891;28;20050;-72
2021/01/14 08:01:08;;;;;;;76.60;31.55;;;3.30;68.90;;;;;;5115347;28;20110;-73
2021/01/14 08:03:38;;;;;;;81.32;36.47;;;3.40;69.00;;;;;;5114926;28;20039;-73
2021/01/14 08:06:35;;;;;;;82.07;32.38;;;3.40;69.00;;;;;;5115211;28;20028;-73
2021/01/14 08:09:04;;;;;;;83.20;35.63;;;3.50;69.30;;;;;;5115409;28;20015;-74
2021/01/14 08:11:37;;;;;;;97.82;41.67;;;3.50;68.90;;;;;;5113835;28;20023;-73
2021/01/14 08:14:09;;;;;;;78.97;32.88;;;3.50;69.00;;;;;;5115082;28;20024;-73
2021/01/14 08:16:46;;;;;;;85.20;36.90;;;3.60;68.80;;;;;;5113737;28;20036;-73
2021/01/14 08:19:28;;;;;;;88.47;38.92;;;3.60;68.90;;;;;;5115159;28;20028;-75
2021/01/14 08:22:05;;;;;;;107.85;41.03;;;3.60;68.70;;;;;;5113755;28;20034;-73
2021/01/14 08:24:38;;;;;;;91.43;40.30;;;3.70;68.50;;;;;;5114988;28;20039;-75
2021/01/14 08:27:05;;;;;;;97.30;37.45;;;3.70;68.50;;;;;;5115221;28;20110;-74
2021/01/14 08:30:09;;;;;;;73.38;31.73;;;3.70;68.30;;;;;;5114828;28;20027;-74
2021/01/14 08:32:40;;;;;;;74.53;34.65;;;3.80;68.40;;;;;;5111539;28;20044;-74
2021/01/14 08:35:08;;;;;;;74.45;35.00;;;3.80;68.40;;;;;;5114425;28;20096;-74
2021/01/14 08:37:44;;;;;;;73.97;35.05;;;3.80;68.20;;;;;;5112986;28;20041;-72
2021/01/14 08:40:14;;;;;;;78.00;34.13;;;3.80;68.20;;;;;;5113899;28;20052;-74
2021/01/14 08:42:48;;;;;;;75.10;33.33;;;3.80;68.30;;;;;;5115869;28;20028;-72
2021/01/14 08:45:21;;;;;;;77.53;35.58;;;3.90;67.80;;;;;;5114202;28;20049;-74
2021/01/14 08:47:58;;;;;;;72.30;33.08;;;3.80;67.80;;;;;;5115029;28;20030;-73
2021/01/14 08:50:42;;;;;;;81.13;32.85;;;3.80;68.10;;;;;;5113798;28;20061;-73
2021/01/14 08:53:10;;;;;;;71.53;32.20;;;3.80;67.90;;;;;;5113092;28;20024;-74
2021/01/14 08:55:40;;;;;;;68.32;30.88;;;3.80;68.20;;;;;;5113013;28;20429;-74
2021/01/14 08:58:10;;;;;;;71.97;31.98;;;3.80;69.10;;;;;;5113798;28;20027;-74
2021/01/14 09:00:37;;;;;;;65.80;30.45;;;4.00;68.50;;;;;;5113969;28;20035;-74
2021/01/14 09:03:04;;;;;;;64.57;30.45;;;4.00;68.00;;;;;;5113915;28;20019;-73
2021/01/14 09:05:31;;;;;;;64.30;32.80;;;4.00;68.10;;;;;;5114126;28;20032;-73
2021/01/14 09:08:04;;;;;;;67.65;31.83;;;4.10;68.00;;;;;;5114056;28;20414;-73
2021/01/14 09:10:45;;;;;;;64.47;30.45;;;4.10;67.80;;;;;;5112768;28;20089;-73
2021/01/14 09:13:25;;;;;;;62.08;30.55;;;4.10;67.80;;;;;;5114371;28;20019;-73
2021/01/14 09:15:56;;;;;;;62.15;28.88;;;4.10;68.00;;;;;;5113766;28;20036;-73
2021/01/14 09:18:48;;;;;;;59.60;26.90;;;4.20;67.70;;;;;;5112732;28;20038;-73
2021/01/14 09:21:14;;;;;;;62.05;29.15;;;4.20;67.50;;;;;;5111733;28;20039;-74
2021/01/14 09:23:40;;;;;;;50.15;23.85;;;4.20;67.50;;;;;;5113565;28;20024;-74
2021/01/14 09:26:23;;;;;;;67.40;28.75;;;4.20;67.30;;;;;;5112928;28;20049;-73
2021/01/14 09:28:53;;;;;;;61.65;27.83;;;4.20;67.70;;;;;;5113908;28;20041;-72
2021/01/14 09:31:20;;;;;;;47.28;23.50;;;4.10;67.30;;;;;;5113423;28;20027;-73
2021/01/14 09:33:48;;;;;;;50.35;24.48;;;4.20;67.30;;;;;;5113762;28;20459;-75
2021/01/14 09:36:18;;;;;;;46.72;23.23;;;4.20;67.20;;;;;;5112123;28;20023;-75
2021/01/14 09:38:52;;;;;;;51.17;22.77;;;4.20;66.90;;;;;;5113541;28;20027;-76
2021/01/14 09:41:42;;;;;;;46.47;22.57;;;4.20;66.80;;;;;;5114383;28;20452;-74
2021/01/14 09:44:10;;;;;;;47.55;22.55;;;4.20;66.90;;;;;;5115503;28;20036;-74
2021/01/14 09:46:46;;;;;;;51.85;23.60;;;4.10;66.70;;;;;;5117915;28;20073;-73
2021/01/14 09:49:18;;;;;;;47.80;21.83;;;4.10;66.80;;;;;;5117002;28;20028;-75
2021/01/14 09:51:45;;;;;;;47.75;22.92;;;4.10;67.00;;;;;;5117321;28;20032;-74
2021/01/14 09:54:12;;;;;;;47.92;22.45;;;4.10;66.90;;;;;;5117448;28;20027;-74
2021/01/14 09:56:42;;;;;;;48.28;23.40;;;4.10;66.90;;;;;;5117555;28;20028;-72
2021/01/14 09:59:32;;;;;;;50.17;24.10;;;4.00;66.70;;;;;;5117349;28;20020;-73
2021/01/14 10:02:29;;;;;;;46.92;24.27;;;4.00;66.80;;;;;;5117533;28;20028;-74
2021/01/14 10:04:59;;;;;;;51.75;23.90;;;4.00;66.90;;;;;;5116556;28;20031;-74
2021/01/14 10:07:26;;;;;;;53.00;23.20;;;4.00;66.80;;;;;;5116826;28;20046;-73
2021/01/14 10:09:53;;;;;;;52.88;24.05;;;4.00;66.80;;;;;;5117063;28;20383;-74
2021/01/14 10:12:19;;;;;;;79.72;35.22;;;4.00;66.90;;;;;;5117328;28;20020;-73
2021/01/14 10:14:45;;;;;;;40.97;19.08;;;4.10;66.80;;;;;;5116881;28;20094;-75
2021/01/14 10:17:13;;;;;;;41.17;21.00;;;4.10;66.70;;;;;;5117383;28;20031;-74
2021/01/14 10:19:40;;;;;;;42.05;19.85;;;4.00;66.60;;;;;;5116974;28;20102;-74
2021/01/14 10:22:07;;;;;;;38.45;17.88;;;4.00;66.60;;;;;;5115595;28;20028;-74
2021/01/14 10:24:34;;;;;;;36.17;17.55;;;4.00;66.60;;;;;;5117035;28;20059;-74
2021/01/14 10:27:14;;;;;;;71.68;33.58;;;4.00;66.50;;;;;;5116797;28;20028;-75
2021/01/14 10:29:41;;;;;;;44.63;21.27;;;4.10;66.70;;;;;;5117105;28;20030;-75
2021/01/14 10:32:10;;;;;;;35.40;18.23;;;4.10;66.70;;;;;;5116995;28;20028;-74
2021/01/14 10:34:45;;;;;;;52.60;23.92;;;4.10;66.30;;;;;;5116861;28;20028;-74
2021/01/14 10:37:31;;;;;;;41.45;18.02;;;4.20;66.40;;;;;;5116780;28;20353;-74
2021/01/14 10:40:17;;;;;;;70.75;29.15;;;4.20;66.20;;;;;;5117381;28;20047;-74
2021/01/14 10:42:48;;;;;;;50.17;21.63;;;4.20;66.00;;;;;;5116510;28;20035;-72
2021/01/14 10:45:23;;;;;;;43.85;20.25;;;4.20;65.90;;;;;;5117280;28;20032;-74
2021/01/14 10:47:49;;;;;;;33.50;15.85;;;4.20;65.70;;;;;;5116709;28;20049;-74
2021/01/14 10:50:26;;;;;;;35.20;17.67;;;4.20;65.80;;;;;;5114721;28;20032;-73
2021/01/14 10:53:02;;;;;;;38.53;18.65;;;4.20;65.60;;;;;;5116800;28;20178;-75
2021/01/14 10:55:28;;;;;;;40.13;20.05;;;4.20;65.60;;;;;;5115780;28;20039;-72
2021/01/14 10:57:55;;;;;;;43.75;19.90;;;4.20;65.40;;;;;;5116563;28;20024;-73
2021/01/14 11:00:24;;;;;;;36.00;17.95;;;4.30;65.50;;;;;;5116435;28;20442;-75
2021/01/14 11:03:05;;;;;;;36.08;18.70;;;4.30;65.40;;;;;;5116446;28;20020;-74
2021/01/14 11:05:47;;;;;;;39.47;18.95;;;4.30;65.40;;;;;;5116160;28;20371;-73
2021/01/14 11:08:14;;;;;;;44.50;20.65;;;4.30;65.30;;;;;;5116205;28;20031;-75
2021/01/14 11:10:41;;;;;;;44.58;19.65;;;4.30;65.60;;;;;;5116167;28;20028;-73
2021/01/14 11:13:15;;;;;;;53.55;21.23;;;4.40;65.30;;;;;;5116492;28;20024;-75
2021/01/14 11:15:41;;;;;;;47.53;20.38;;;4.40;65.10;;;;;;5116225;28;20019;-74
2021/01/14 11:18:09;;;;;;;47.10;19.40;;;4.40;64.90;;;;;;5115830;28;20034;-75
2021/01/14 11:20:35;;;;;;;44.92;18.63;;;4.40;65.60;;;;;;5116125;28;20020;-73
2021/01/14 11:23:01;;;;;;;46.67;20.23;;;4.30;64.80;;;;;;5116171;28;20019;-72
2021/01/14 11:25:27;;;;;;;33.20;15.55;;;4.30;64.70;;;;;;5115697;28;20054;-74
2021/01/14 11:27:53;;;;;;;32.92;16.67;;;4.30;64.80;;;;;;5115926;28;20024;-73
2021/01/14 11:30:21;;;;;;;34.63;15.15;;;4.30;65.00;;;;;;5114395;28;20024;-74
2021/01/14 11:32:47;;;;;;;25.83;15.23;;;4.30;64.80;;;;;;5115925;28;20024;-75
2021/01/14 11:35:13;;;;;;;37.03;18.85;;;4.30;64.60;;;;;;5115955;28;20035;-74
2021/01/14 11:37:40;;;;;;;24.95;14.50;;;4.30;64.80;;;;;;5115733;28;20468;-74
2021/01/14 11:40:06;;;;;;;29.48;14.63;;;4.30;64.70;;;;;;5116201;28;20052;-74
2021/01/14 11:42:34;;;;;;;28.48;14.25;;;4.30;64.50;;;;;;5113914;28;20149;-75
2021/01/14 11:45:01;;;;;;;27.75;14.95;;;4.30;64.50;;;;;;5115690;28;20035;-74
2021/01/14 11:47:26;;;;;;;27.33;13.50;;;4.30;64.40;;;;;;5116083;28;20024;-74
2021/01/14 11:49:53;;;;;;;32.00;17.70;;;4.30;64.30;;;;;;5113368;28;20023;-74
2021/01/14 11:52:21;;;;;;;25.55;12.57;;;4.30;64.00;;;;;;5115360;28;20352;-71
2021/01/14 11:54:47;;;;;;;22.55;12.73;;;4.30;63.70;;;;;;5112249;28;20345;-75
2021/01/14 11:57:13;;;;;;;23.30;12.90;;;4.30;63.90;;;;;;5111626;28;20030;-75
2021/01/14 11:59:43;;;;;;;20.20;11.77;;;4.30;63.80;;;;;;5111981;28;20386;-72
2021/01/14 12:02:12;;;;;;;23.55;12.98;;;4.30;63.70;;;;;;5115229;28;20027;-73
2021/01/14 12:04:38;;;;;;;22.65;12.13;;;4.30;63.70;;;;;;5115315;28;20028;-74
2021/01/14 12:07:07;;;;;;;33.10;16.60;;;4.40;63.60;;;;;;5108543;28;20376;-72
2021/01/14 12:09:33;;;;;;;42.97;17.98;;;4.40;63.70;;;;;;5115155;28;20462;-70
2021/01/14 12:11:58;;;;;;;43.22;18.75;;;4.50;63.70;;;;;;5114776;28;20019;-71
2021/01/14 12:14:24;;;;;;;36.95;17.75;;;4.60;63.90;;;;;;5115181;28;20031;-72
2021/01/14 12:16:50;;;;;;;41.53;18.52;;;4.60;64.10;;;;;;5115589;28;20396;-71
2021/01/14 12:19:15;;;;;;;42.35;21.40;;;4.70;64.00;;;;;;5115157;28;20098;-71
2021/01/14 12:21:41;;;;;;;29.83;16.45;;;4.70;64.40;;;;;;5115198;28;20023;-71
2021/01/14 12:24:07;;;;;;;30.15;15.90;;;4.80;64.30;;;;;;5115155;28;20035;-72
2021/01/14 12:26:33;;;;;;;29.42;15.68;;;4.80;63.70;;;;;;5114937;28;20034;-71
2021/01/14 12:28:58;;;;;;;31.27;15.55;;;4.80;63.60;;;;;;5115026;28;20031;-72
2021/01/14 12:31:25;;;;;;;30.73;14.10;;;4.70;63.40;;;;;;5114775;28;20019;-71
2021/01/14 12:33:51;;;;;;;37.17;17.10;;;4.70;63.30;;;;;;5114849;28;20020;-70
2021/01/14 12:36:18;;;;;;;35.90;16.85;;;4.60;63.20;;;;;;5114419;28;20015;-72
2021/01/14 12:38:44;;;;;;;30.55;14.98;;;4.60;63.40;;;;;;5113132;28;20095;-71
2021/01/14 12:41:10;;;;;;;29.80;14.07;;;4.50;63.30;;;;;;5114888;28;20434;-70
2021/01/14 12:43:36;;;;;;;32.92;15.90;;;4.50;63.50;;;;;;5114305;28;20015;-74
2021/01/14 12:46:01;;;;;;;27.80;15.73;;;4.40;63.40;;;;;;5114124;28;20132;-73
2021/01/14 12:48:27;;;;;;;33.00;16.67;;;4.40;63.60;;;;;;5114634;28;20076;-75
2021/01/14 12:50:53;;;;;;;38.92;23.15;;;4.40;63.80;;;;;;5113982;28;20490;-75
2021/01/14 12:53:19;;;;;;;49.35;30.65;;;4.50;63.70;;;;;;5114454;28;20031;-76